Airport ID:KJTC
Update Time (UTC):27/05/2020 22:08
Wind Speed (Knots):15
Wind Direction (Magnetic):330
Temperature (°C):28
Dew Point (°C):-7
Humidity (%):10
Altimeter (inHg):30.21
Density Altitude (Feet):9700
Visibility:10+
Clouds (Hundreds of feet):CLR
Present Weather:
METAR:METAR KJTC 272205Z AUTO 32014G23KT 10SM CLR 28/M07 A3021 RMK AO2

The data displayed is for advisory purposes only and is not to be used for flight planning or operations.